Time;durP1;ratioP1;P1;durP2;ratioP2;P2;SDS_P1;SDS_P2;PMS_P1;PMS_P2;Temp;Humidity;BMP_temperature;BMP_pressure;BME280_temperature;BME280_humidity;BME280_pressure;Samples;Min_cycle;Max_cycle;Signal;HPM_P1;HPM_P2
2022/06/04 00:00:37;;;;;;;14.38;8.85;;;;;;;13.16;80.47;98204.95;1769542;80;21051;-84
2022/06/04 00:03:04;;;;;;;14.45;8.93;;;;;;;13.15;79.61;98206.87;1778968;80;21088;-83
2022/06/04 00:05:35;;;;;;;14.35;8.80;;;;;;;13.10;79.26;98205.59;1779177;80;21163;-86
2022/06/04 00:08:01;;;;;;;14.20;8.78;;;;;;;13.05;81.06;98210.27;1779008;79;21584;-83
2022/06/04 00:16:03;;;;;;;12.68;9.23;;;;;;;12.96;82.74;98204.67;1743353;81;21052;-84
2022/06/04 00:18:29;;;;;;;14.47;9.63;;;;;;;12.93;82.46;98197.91;1734291;82;21873;-84
2022/06/04 00:20:55;;;;;;;11.90;8.55;;;;;;;12.91;82.58;98195.23;1719873;81;20838;-86
2022/06/04 00:23:21;;;;;;;13.55;8.50;;;;;;;12.85;81.01;98190.94;1742018;80;20973;-86
2022/06/04 00:25:52;;;;;;;12.58;9.05;;;;;;;12.89;82.19;98199.57;1771766;80;21036;-86
2022/06/04 00:28:20;;;;;;;19.15;9.73;;;;;;;12.94;82.01;98197.36;1779176;80;21100;-86
2022/06/04 00:30:46;;;;;;;14.07;9.63;;;;;;;12.96;81.86;98201.39;1779300;80;21216;-86
2022/06/04 00:33:12;;;;;;;15.63;10.00;;;;;;;12.98;82.29;98195.11;1779218;79;20952;-84
2022/06/04 00:35:39;;;;;;;11.55;8.60;;;;;;;12.97;84.91;98194.85;1778924;80;21040;-85
2022/06/04 00:38:05;;;;;;;15.90;9.83;;;;;;;12.98;81.81;98194.30;1768749;80;21010;-84
2022/06/04 00:40:52;;;;;;;17.02;10.72;;;;;;;12.96;80.65;98191.07;1779021;80;21064;-86
2022/06/04 00:43:18;;;;;;;11.25;8.08;;;;;;;12.90;82.80;98194.42;1755571;80;21056;-84
2022/06/04 00:46:09;;;;;;;11.63;8.45;;;;;;;12.90;83.55;98192.22;1766874;80;21500;-85
2022/06/04 00:48:35;;;;;;;13.20;9.05;;;;;;;12.92;84.21;98186.77;1776252;79;21436;-86
2022/06/04 00:51:02;;;;;;;15.95;10.48;;;;;;;12.95;84.15;98180.73;1761046;80;21037;-86
2022/06/04 00:53:28;;;;;;;11.50;8.15;;;;;;;12.95;83.55;98173.94;1755075;80;21460;-86
2022/06/04 00:56:19;;;;;;;11.50;8.73;;;;;;;12.95;83.98;98175.85;1767059;80;21091;-86
2022/06/04 00:59:02;;;;;;;12.78;9.00;;;;;;;12.97;84.86;98177.72;1737977;80;21002;-86
2022/06/04 01:01:33;;;;;;;15.58;8.48;;;;;;;12.99;82.49;98180.44;1779326;80;21079;-86
2022/06/04 01:04:10;;;;;;;12.93;9.00;;;;;;;12.98;82.72;98177.43;1777376;80;21041;-85
2022/06/04 01:06:57;;;;;;;11.88;9.05;;;;;;;12.97;83.50;98183.16;1756455;80;21029;-86
2022/06/04 01:09:50;;;;;;;10.48;8.23;;;;;;;12.93;84.02;98178.06;1768522;80;21084;-84
2022/06/04 01:12:37;;;;;;;10.75;7.83;;;;;;;12.93;85.12;98173.43;1744688;80;21024;-86
2022/06/04 01:15:33;;;;;;;11.93;8.15;;;;;;;12.93;84.15;98162.55;1766647;80;21044;-86
2022/06/04 01:18:24;;;;;;;13.15;7.78;;;;;;;12.91;84.46;98158.52;1776610;80;21021;-85
2022/06/04 01:21:20;;;;;;;10.93;8.83;;;;;;;12.92;82.89;98150.61;1769667;80;20988;-83
2022/06/04 01:24:22;;;;;;;11.60;8.23;;;;;;;12.88;82.23;98158.52;1777621;79;21137;-83
2022/06/04 01:27:09;;;;;;;10.68;7.95;;;;;;;12.82;82.38;98156.16;1765150;79;21594;-86
2022/06/04 01:29:40;;;;;;;10.58;7.80;;;;;;;12.79;83.02;98166.26;1762418;80;20992;-84
2022/06/04 01:32:23;;;;;;;12.65;7.90;;;;;;;12.77;84.65;98157.04;1746435;80;21035;-84
2022/06/04 01:35:07;;;;;;;10.55;8.50;;;;;;;12.80;84.76;98160.52;1737260;80;20983;-84
2022/06/04 01:37:47;;;;;;;14.35;8.75;;;;;;;12.83;83.60;98165.41;1775922;79;21701;-85
2022/06/04 01:43:01;;;;;;;15.68;10.35;;;;;;;12.82;85.33;98160.23;1737317;82;21040;-84
2022/06/04 01:45:27;;;;;;;15.72;9.60;;;;;;;12.81;86.04;98162.14;1769011;80;20901;-86
2022/06/04 01:47:53;;;;;;;14.60;8.78;;;;;;;12.84;85.01;98156.69;1779095;79;20968;-84
2022/06/04 01:50:23;;;;;;;14.68;10.50;;;;;;;12.84;85.65;98155.33;1779175;80;21061;-86
2022/06/04 01:52:49;;;;;;;12.43;8.43;;;;;;;12.82;85.41;98151.55;1779006;79;21000;-84
2022/06/04 01:55:19;;;;;;;13.05;8.78;;;;;;;12.81;83.79;98140.39;1779142;80;20849;-84
2022/06/04 01:58:00;;;;;;;16.00;8.90;;;;;;;12.73;83.79;98134.23;1779222;79;21277;-86
2022/06/04 02:00:33;;;;;;;9.35;7.55;;;;;;;12.68;86.63;98132.41;1779196;80;21064;-85
2022/06/04 02:03:17;;;;;;;12.85;8.68;;;;;;;12.73;86.00;98131.52;1755404;80;21146;-86
2022/06/04 02:05:53;;;;;;;11.00;8.53;;;;;;;12.77;86.72;98127.13;1775557;80;21032;-84
2022/06/04 02:08:25;;;;;;;10.03;8.15;;;;;;;12.80;87.08;98127.09;1774131;80;21004;-83
2022/06/04 02:10:58;;;;;;;11.73;7.95;;;;;;;12.87;85.55;98125.63;1775832;80;21001;-85
2022/06/04 02:13:24;;;;;;;11.68;8.40;;;;;;;12.93;85.69;98123.67;1772856;79;20953;-85
2022/06/04 02:15:55;;;;;;;8.75;7.35;;;;;;;12.95;86.14;98124.17;1774823;80;22071;-84
2022/06/04 02:18:21;;;;;;;9.98;7.75;;;;;;;13.01;85.91;98118.94;1778009;80;20974;-84
2022/06/04 02:20:47;;;;;;;10.08;7.92;;;;;;;13.06;85.02;98127.02;1779292;80;20941;-86
2022/06/04 02:23:13;;;;;;;17.37;9.23;;;;;;;13.10;84.28;98121.81;1779355;80;20886;-86
2022/06/04 02:25:39;;;;;;;10.68;8.20;;;;;;;13.11;84.88;98116.07;1779220;80;20866;-87
2022/06/04 02:28:06;;;;;;;9.85;7.53;;;;;;;13.09;85.72;98112.03;1779494;79;21009;-86
2022/06/04 02:31:01;;;;;;;9.98;7.20;;;;;;;13.10;84.46;98116.37;1779143;80;21023;-84
2022/06/04 02:34:00;;;;;;;11.50;8.60;;;;;;;13.03;85.70;98113.20;1779220;80;21064;-84
2022/06/04 02:36:38;;;;;;;;;;;;;;;12.99;86.64;98104.83;1781445;80;21076;-83
2022/06/04 02:39:13;;;;;;;9.60;6.92;;;;;;;13.00;86.57;98109.16;1779366;80;20188;-83
2022/06/04 02:41:50;;;;;;;13.70;9.03;;;;;;;12.99;86.98;98111.08;1779005;80;21890;-86
2022/06/04 02:44:26;;;;;;;10.55;6.83;;;;;;;13.02;86.34;98102.87;1777184;80;21615;-83
2022/06/04 02:47:03;;;;;;;12.70;8.65;;;;;;;13.03;86.22;98099.05;1740896;80;20998;-86
2022/06/04 02:49:43;;;;;;;12.15;8.83;;;;;;;13.02;87.26;98100.16;1756188;80;21041;-84
2022/06/04 02:52:11;;;;;;;9.75;7.45;;;;;;;13.02;86.98;98098.79;1770392;81;21089;-84
2022/06/04 02:54:41;;;;;;;13.08;9.25;;;;;;;13.08;85.56;98100.34;1773131;80;21222;-84
2022/06/04 02:57:10;;;;;;;14.38;7.97;;;;;;;13.08;86.70;98092.19;1779267;80;21013;-83
2022/06/04 02:59:36;;;;;;;15.40;8.63;;;;;;;13.12;85.73;98089.12;1772753;80;21418;-86
2022/06/04 03:02:02;;;;;;;11.18;7.75;;;;;;;13.15;85.88;98089.08;1781133;79;20865;-86
2022/06/04 03:04:29;;;;;;;11.12;7.95;;;;;;;13.16;85.91;98084.72;1765833;80;21460;-84
2022/06/04 03:07:05;;;;;;;10.43;8.50;;;;;;;13.19;86.05;98091.48;1743495;80;21053;-83
2022/06/04 03:09:31;;;;;;;9.10;6.60;;;;;;;13.18;86.23;98088.50;1784625;80;21047;-86
2022/06/04 03:11:57;;;;;;;11.55;7.67;;;;;;;13.19;85.85;98092.84;1749132;80;21542;-84
2022/06/04 03:14:24;;;;;;;10.95;8.50;;;;;;;13.23;85.54;98089.80;1761459;80;20993;-85
2022/06/04 03:16:51;;;;;;;9.80;7.03;;;;;;;13.26;85.55;98084.59;1751041;80;21129;-84
2022/06/04 03:19:17;;;;;;;8.68;6.58;;;;;;;13.33;84.57;98080.67;1762043;80;21009;-84
2022/06/04 03:21:43;;;;;;;16.80;7.53;;;;;;;13.37;83.93;98082.52;1778790;80;20997;-84
2022/06/04 03:24:10;;;;;;;12.63;7.87;;;;;;;13.40;85.87;98087.36;1779525;80;20937;-87
2022/06/04 03:26:36;;;;;;;12.00;8.43;;;;;;;13.45;85.30;98098.18;1778890;79;20993;-84
2022/06/04 03:29:02;;;;;;;12.35;7.62;;;;;;;13.51;85.22;98094.28;1755417;80;20862;-84
2022/06/04 03:31:28;;;;;;;10.85;7.35;;;;;;;13.54;84.36;98098.31;1779126;79;21193;-83
2022/06/04 03:33:55;;;;;;;13.48;9.30;;;;;;;13.53;84.01;98098.88;1775416;80;21389;-86
2022/06/04 03:36:21;;;;;;;10.30;8.13;;;;;;;13.51;84.67;98095.64;1755629;80;20984;-87
2022/06/04 03:38:48;;;;;;;10.60;7.28;;;;;;;13.51;85.40;98103.00;1737389;80;21014;-86
2022/06/04 03:41:14;;;;;;;9.50;7.92;;;;;;;13.50;83.77;98092.67;1737392;80;21023;-87
2022/06/04 03:43:41;;;;;;;9.58;8.13;;;;;;;13.43;83.97;98099.03;1737333;82;21223;-86
2022/06/04 03:46:08;;;;;;;10.43;7.60;;;;;;;13.42;84.52;98091.17;1776810;80;21053;-83
2022/06/04 03:48:34;;;;;;;9.88;7.72;;;;;;;13.45;83.98;98087.84;1755286;80;21016;-84
2022/06/04 03:51:01;;;;;;;11.68;8.93;;;;;;;13.42;84.21;98091.17;1777999;80;21040;-86
2022/06/04 03:53:27;;;;;;;11.45;8.65;;;;;;;13.43;86.94;98096.31;1779017;80;21091;-85
2022/06/04 03:55:53;;;;;;;14.38;9.18;;;;;;;13.50;85.69;98089.95;1779311;80;21190;-85
2022/06/04 03:58:19;;;;;;;10.35;7.87;;;;;;;13.53;86.66;98094.78;1779099;79;20849;-86
2022/06/04 04:00:45;;;;;;;11.38;8.25;;;;;;;13.59;86.99;98100.97;1770902;80;21001;-86
2022/06/04 04:03:14;;;;;;;10.90;9.80;;;;;;;13.62;88.44;98104.45;1779271;79;20928;-84
2022/06/04 04:05:47;;;;;;;11.75;8.55;;;;;;;13.69;86.07;98106.80;1761127;80;20984;-86
2022/06/04 04:08:13;;;;;;;9.58;8.55;;;;;;;13.81;86.38;98110.66;1779238;79;21138;-84
2022/06/04 04:10:40;;;;;;;14.25;9.65;;;;;;;13.93;86.09;98119.73;1779243;80;21036;-87
2022/06/04 04:13:07;;;;;;;11.10;9.90;;;;;;;14.06;86.22;98119.50;1777798;80;21041;-86
2022/06/04 04:15:33;;;;;;;13.03;9.58;;;;;;;14.11;88.09;98114.77;1770753;80;21964;-84
2022/06/04 04:17:59;;;;;;;10.53;8.80;;;;;;;14.00;87.65;98118.77;1779388;79;20862;-84
2022/06/04 04:20:30;;;;;;;14.13;10.20;;;;;;;13.82;89.10;98119.63;1779230;80;21282;-87
2022/06/04 04:22:56;;;;;;;11.60;8.80;;;;;;;13.77;88.57;98124.63;1779093;80;21060;-87
2022/06/04 04:25:25;;;;;;;16.05;10.32;;;;;;;13.73;87.44;98122.23;1760828;80;20987;-83
2022/06/04 04:27:51;;;;;;;11.93;10.68;;;;;;;13.73;88.10;98110.52;1779475;79;20964;-87
2022/06/04 04:30:21;;;;;;;14.75;9.68;;;;;;;13.77;89.00;98116.45;1777559;80;21119;-84
2022/06/04 04:32:46;;;;;;;11.68;9.43;;;;;;;13.79;87.25;98127.05;1737204;81;21165;-88
2022/06/04 04:35:16;;;;;;;14.28;9.80;;;;;;;13.80;87.71;98128.10;1764981;80;20857;-85
2022/06/04 04:37:42;;;;;;;12.93;10.05;;;;;;;13.79;87.37;98131.13;1737185;82;21519;-86
2022/06/04 04:40:10;;;;;;;14.87;9.88;;;;;;;13.80;88.18;98138.19;1762620;80;21364;-83
2022/06/04 04:42:36;;;;;;;12.17;10.27;;;;;;;13.72;88.51;98139.67;1737460;80;21043;-87
2022/06/04 04:45:07;;;;;;;24.77;16.17;;;;;;;13.69;89.43;98141.64;1745280;80;21014;-83
2022/06/04 04:47:34;;;;;;;12.98;9.80;;;;;;;13.70;90.07;98141.89;1777818;79;21012;-86
2022/06/04 04:50:01;;;;;;;13.20;8.65;;;;;;;13.67;95.86;98144.38;1779224;80;21064;-84
2022/06/04 04:52:27;;;;;;;11.50;9.15;;;;;;;13.70;93.01;98154.70;1779097;79;21067;-88
2022/06/04 04:54:53;;;;;;;19.98;10.90;;;;;;;13.70;91.88;98157.42;1779425;80;20850;-87
2022/06/04 04:57:19;;;;;;;11.25;9.88;;;;;;;13.63;95.29;98155.06;1779232;79;21811;-86
2022/06/04 04:59:45;;;;;;;13.05;10.15;;;;;;;13.66;92.81;98161.27;1779174;80;20932;-87
2022/06/04 05:02:11;;;;;;;10.38;9.33;;;;;;;13.68;91.77;98159.09;1780838;79;21043;-87
2022/06/04 05:04:37;;;;;;;12.70;10.90;;;;;;;13.65;92.42;98162.38;1779318;80;20921;-87
2022/06/04 05:07:04;;;;;;;11.18;8.98;;;;;;;13.69;92.64;98163.42;1779133;79;20983;-83
2022/06/04 05:09:31;;;;;;;12.65;10.08;;;;;;;13.74;92.19;98172.05;1760384;80;21209;-87
2022/06/04 05:11:56;;;;;;;12.05;10.23;;;;;;;13.77;92.01;98170.11;1748766;80;22128;-87
2022/06/04 05:14:22;;;;;;;13.80;10.60;;;;;;;13.83;92.28;98167.55;1757207;80;21120;-87
2022/06/04 05:16:48;;;;;;;16.48;11.88;;;;;;;13.87;91.99;98175.39;1765116;79;20996;-84
2022/06/04 05:19:14;;;;;;;13.03;10.58;;;;;;;13.95;94.84;98178.80;1779981;80;20885;-84
2022/06/04 05:21:46;;;;;;;12.93;11.28;;;;;;;14.03;93.68;98182.21;1757862;80;20938;-87
2022/06/04 05:24:25;;;;;;;14.13;11.68;;;;;;;14.07;95.13;98183.22;1746247;80;21035;-87
2022/06/04 05:26:52;;;;;;;13.72;10.90;;;;;;;14.11;96.18;98186.17;1771236;79;21428;-83
2022/06/04 05:29:18;;;;;;;14.13;10.75;;;;;;;14.13;92.97;98181.78;1779357;80;20985;-87
2022/06/04 05:31:45;;;;;;;12.65;10.65;;;;;;;14.12;93.32;98187.78;1779296;79;21433;-86
2022/06/04 05:34:12;;;;;;;14.63;10.78;;;;;;;14.13;93.16;98180.42;1747353;80;21056;-88
2022/06/04 05:36:37;;;;;;;15.60;11.33;;;;;;;14.11;93.62;98183.45;1780263;79;21044;-85
2022/06/04 05:39:05;;;;;;;12.68;11.05;;;;;;;14.10;94.08;98185.92;1779629;80;20870;-83
2022/06/04 05:41:30;;;;;;;11.75;9.83;;;;;;;14.05;94.63;98192.80;1762081;79;21658;-83
2022/06/04 05:43:56;;;;;;;11.45;9.30;;;;;;;14.03;94.45;98192.30;1755685;80;20854;-87
2022/06/04 05:46:22;;;;;;;11.65;9.50;;;;;;;14.02;93.79;98196.94;1740790;80;21309;-84
2022/06/04 05:48:48;;;;;;;14.78;10.58;;;;;;;14.00;93.19;98199.13;1739374;80;21616;-87
2022/06/04 05:51:18;;;;;;;15.32;10.90;;;;;;;14.00;96.67;98201.86;1779192;80;20878;-83
2022/06/04 05:53:43;;;;;;;15.80;11.73;;;;;;;14.04;96.93;98193.92;1779311;79;21080;-87
2022/06/04 05:56:13;;;;;;;15.35;13.18;;;;;;;14.07;96.86;98198.20;1779397;80;21621;-87
2022/06/04 05:58:39;;;;;;;15.60;11.97;;;;;;;14.09;98.47;98195.17;1779074;80;21072;-84
2022/06/04 06:01:05;;;;;;;13.55;10.55;;;;;;;14.11;96.93;98194.34;1779178;80;21501;-84
2022/06/04 06:03:31;;;;;;;13.18;10.95;;;;;;;14.11;94.93;98201.97;1779541;80;21033;-87
2022/06/04 06:05:58;;;;;;;14.05;11.33;;;;;;;14.07;94.29;98207.73;1766360;80;20888;-84
2022/06/04 06:08:24;;;;;;;13.22;11.45;;;;;;;14.10;93.88;98198.99;1737241;82;21035;-87
2022/06/04 06:10:50;;;;;;;13.40;10.82;;;;;;;14.14;96.44;98196.47;1740273;80;21437;-84
2022/06/04 06:13:16;;;;;;;12.20;10.90;;;;;;;14.18;95.10;98193.38;1742121;80;20889;-84
2022/06/04 06:15:42;;;;;;;16.65;11.73;;;;;;;14.24;95.08;98188.66;1779543;80;21347;-85
2022/06/04 06:18:08;;;;;;;15.08;11.25;;;;;;;14.28;95.45;98190.51;1779054;79;21506;-87
2022/06/04 06:20:34;;;;;;;12.43;11.12;;;;;;;14.33;94.17;98182.78;1779298;80;20997;-83
2022/06/04 06:23:00;;;;;;;15.50;11.75;;;;;;;14.34;93.73;98177.02;1779288;79;21271;-85
2022/06/04 06:25:26;;;;;;;18.45;13.35;;;;;;;14.40;94.07;98173.11;1779185;80;20870;-84
2022/06/04 06:27:52;;;;;;;15.65;12.85;;;;;;;14.48;94.37;98164.82;1779196;79;20979;-88
2022/06/04 06:30:18;;;;;;;23.40;20.72;;;;;;;14.50;95.28;98161.78;1771216;80;20929;-87
2022/06/04 06:32:44;;;;;;;35.95;23.87;;;;;;;14.56;94.05;98165.48;1778975;80;21020;-87
2022/06/04 06:35:10;;;;;;;20.60;18.32;;;;;;;14.64;94.17;98157.16;1779400;80;21250;-84
2022/06/04 06:37:36;;;;;;;21.30;18.05;;;;;;;14.75;93.60;98157.76;1776734;80;21080;-87
2022/06/04 06:40:06;;;;;;;18.20;15.93;;;;;;;14.78;95.28;98145.67;1754691;80;21062;-87
2022/06/04 06:42:32;;;;;;;19.65;16.77;;;;;;;14.84;96.35;98154.02;1777824;80;20986;-85
2022/06/04 06:44:58;;;;;;;27.77;20.25;;;;;;;14.92;95.16;98151.94;1779649;80;21563;-87
2022/06/04 06:47:24;;;;;;;21.00;18.20;;;;;;;15.00;94.57;98155.87;1778854;79;21233;-84
2022/06/04 06:49:50;;;;;;;21.48;17.95;;;;;;;15.10;94.04;98162.48;1752523;80;20917;-87
2022/06/04 06:52:16;;;;;;;25.17;19.20;;;;;;;15.15;93.82;98154.75;1695050;82;20960;-87
2022/06/04 06:54:43;;;;;;;23.65;19.60;;;;;;;15.20;94.03;98150.53;1746936;80;21011;-87
2022/06/04 06:57:10;;;;;;;19.95;17.17;;;;;;;15.30;94.37;98140.77;1779069;79;20992;-84
2022/06/04 06:59:37;;;;;;;16.42;14.00;;;;;;;15.41;96.54;98136.69;1779204;80;22040;-87
2022/06/04 07:02:03;;;;;;;14.53;13.00;;;;;;;15.56;95.75;98131.44;1778971;80;21095;-85
2022/06/04 07:04:29;;;;;;;15.10;13.22;;;;;;;15.64;94.27;98126.63;1778607;80;21060;-83
2022/06/04 07:06:59;;;;;;;16.75;12.53;;;;;;;15.65;93.75;98127.44;1773795;79;20895;-87
2022/06/04 07:09:29;;;;;;;15.48;11.70;;;;;;;15.70;96.63;98124.56;1768179;79;21098;-87
2022/06/04 07:11:56;;;;;;;15.18;12.20;;;;;;;15.81;96.25;98116.39;1777935;80;21950;-87
2022/06/04 07:14:24;;;;;;;13.22;11.35;;;;;;;15.93;96.07;98115.25;1771312;80;20940;-87
2022/06/04 07:16:52;;;;;;;12.80;11.28;;;;;;;15.99;94.31;98118.67;1778462;80;21214;-83
2022/06/04 07:19:18;;;;;;;12.30;10.75;;;;;;;16.07;93.96;98124.75;1779129;80;21044;-87
2022/06/04 07:21:44;;;;;;;13.48;11.18;;;;;;;16.08;93.62;98118.97;1778947;79;20981;-84
2022/06/04 07:24:11;;;;;;;12.50;11.20;;;;;;;16.12;93.88;98119.13;1779280;80;21497;-86
2022/06/04 07:26:38;;;;;;;16.40;12.58;;;;;;;16.23;93.66;98124.57;1778503;79;21521;-87
2022/06/04 07:29:04;;;;;;;16.07;14.10;;;;;;;16.27;93.42;98117.38;1778676;80;21017;-84
2022/06/04 07:31:31;;;;;;;17.07;14.98;;;;;;;16.36;95.33;98116.05;1776981;80;21063;-87
2022/06/04 07:33:58;;;;;;;16.42;13.72;;;;;;;16.46;95.32;98117.69;1778286;80;21012;-86
2022/06/04 07:36:32;;;;;;;13.08;11.73;;;;;;;16.60;94.50;98119.77;1778634;80;21219;-84
2022/06/04 07:38:58;;;;;;;15.85;11.93;;;;;;;16.72;94.86;98118.63;1754662;80;21758;-85
2022/06/04 07:41:30;;;;;;;13.53;11.70;;;;;;;16.80;94.13;98128.78;1751940;80;20904;-86
2022/06/04 07:43:56;;;;;;;18.37;11.90;;;;;;;16.94;93.86;98124.57;1761395;80;21032;-84
2022/06/04 07:46:23;;;;;;;11.40;9.95;;;;;;;17.14;92.97;98121.22;1764923;80;21012;-86
2022/06/04 07:48:49;;;;;;;15.35;12.63;;;;;;;17.25;92.81;98123.08;1778545;80;21207;-86
2022/06/04 07:51:16;;;;;;;13.55;11.33;;;;;;;17.36;93.15;98121.66;1778881;80;21048;-85
2022/06/04 07:53:42;;;;;;;13.45;12.03;;;;;;;17.42;92.78;98114.87;1778922;79;20989;-84
2022/06/04 07:56:11;;;;;;;13.32;11.93;;;;;;;17.48;92.36;98119.06;1761065;80;20881;-84
2022/06/04 07:58:37;;;;;;;16.32;12.43;;;;;;;17.53;91.98;98118.12;1774937;80;21012;-84
2022/06/04 08:01:04;;;;;;;21.57;14.98;;;;;;;17.49;92.31;98115.77;1772432;80;21081;-84
2022/06/04 08:03:33;;;;;;;16.57;13.85;;;;;;;17.57;91.75;98125.11;1778387;80;21443;-84
2022/06/04 08:05:59;;;;;;;15.28;13.62;;;;;;;17.64;91.57;98133.09;1780811;79;23932;-84
2022/06/04 08:08:25;;;;;;;16.60;14.40;;;;;;;17.69;91.44;98139.79;1779068;79;21059;-85
2022/06/04 08:10:51;;;;;;;16.67;14.58;;;;;;;17.74;91.15;98145.12;1779674;80;20889;-86
2022/06/04 08:13:26;;;;;;;19.98;14.98;;;;;;;17.79;91.03;98154.33;1779160;79;21660;-86
2022/06/04 08:15:45;;;;;;;14.00;11.75;;;;;;;17.84;90.74;98154.14;1774152;79;21075;-85
2022/06/04 08:18:11;;;;;;;18.85;15.58;;;;;;;17.88;90.67;98145.53;1778983;79;20866;-87
2022/06/04 08:20:42;;;;;;;19.85;14.75;;;;;;;17.79;90.48;98148.84;1780325;79;21040;-85
2022/06/04 08:23:09;;;;;;;18.42;15.03;;;;;;;17.77;91.31;98143.66;1782953;78;20973;-86
2022/06/04 08:25:41;;;;;;;24.40;15.40;;;;;;;17.81;90.82;98145.20;1765669;80;21484;-86
2022/06/04 08:28:07;;;;;;;19.60;15.15;;;;;;;17.79;90.77;98147.47;1737079;82;20980;-86
2022/06/04 08:30:33;;;;;;;17.32;15.25;;;;;;;17.84;90.93;98154.14;1779627;79;20917;-87
2022/06/04 08:32:59;;;;;;;16.30;14.60;;;;;;;17.81;90.79;98153.43;1760716;79;20992;-86
2022/06/04 08:35:25;;;;;;;18.30;16.40;;;;;;;17.75;91.04;98160.43;1749884;80;20950;-84
2022/06/04 08:37:51;;;;;;;20.20;17.82;;;;;;;17.82;90.88;98165.44;1778782;79;21040;-86
2022/06/04 08:40:28;;;;;;;24.47;19.57;;;;;;;17.91;90.71;98170.91;1759304;80;21569;-85
2022/06/04 08:43:20;;;;;;;21.27;18.98;;;;;;;17.95;90.50;98181.48;1736989;82;21012;-86
2022/06/04 08:45:46;;;;;;;25.88;20.40;;;;;;;17.98;90.30;98184.38;1755785;80;20976;-85
2022/06/04 08:48:22;;;;;;;20.10;17.75;;;;;;;17.96;89.98;98180.34;1777629;79;21043;-87
2022/06/04 08:50:48;;;;;;;20.40;17.65;;;;;;;17.98;89.74;98184.38;1771072;80;21107;-84
2022/06/04 08:53:22;;;;;;;18.60;16.65;;;;;;;17.85;89.71;98188.64;1778988;79;21070;-84
2022/06/04 08:59:08;;;;;;;22.65;20.25;;;;;;;17.83;91.97;98190.91;1779056;79;20993;-85
2022/06/04 09:01:43;;;;;;;22.05;19.17;;;;;;;17.85;94.17;98184.53;1755660;80;21086;-84
2022/06/04 09:04:42;;;;;;;19.73;17.62;;;;;;;17.87;94.35;98181.73;1736492;80;21296;-85
2022/06/04 09:07:16;;;;;;;20.82;17.77;;;;;;;17.95;92.32;98182.85;1744468;80;21005;-87
2022/06/04 09:10:06;;;;;;;24.10;17.20;;;;;;;17.94;92.12;98186.70;1773419;79;21061;-84
2022/06/04 09:12:43;;;;;;;21.52;19.25;;;;;;;17.98;91.57;98190.42;1776723;80;21619;-87
2022/06/04 09:15:24;;;;;;;19.65;17.57;;;;;;;17.91;92.79;98185.42;1779099;80;21052;-85
2022/06/04 09:17:53;;;;;;;19.92;16.70;;;;;;;17.83;93.08;98177.20;1765278;79;21464;-86
2022/06/04 09:20:39;;;;;;;18.77;15.28;;;;;;;17.79;92.31;98174.31;1777313;80;21020;-87
2022/06/04 09:23:17;;;;;;;18.80;14.55;;;;;;;17.83;91.89;98177.20;1737100;81;21027;-88
2022/06/04 09:25:51;;;;;;;18.17;16.10;;;;;;;17.82;91.95;98174.22;1769425;80;21016;-84
2022/06/04 09:28:59;;;;;;;17.35;15.55;;;;;;;17.85;91.75;98179.05;1778655;79;21056;-84
2022/06/04 09:31:50;;;;;;;15.90;13.93;;;;;;;17.89;91.56;98183.58;1737102;81;21129;-88
2022/06/04 09:34:30;;;;;;;16.48;13.83;;;;;;;17.92;91.32;98187.02;1760944;80;21008;-84
2022/06/04 09:36:56;;;;;;;16.52;14.87;;;;;;;17.94;91.14;98192.98;1766789;79;21048;-88
2022/06/04 09:39:31;;;;;;;17.85;15.88;;;;;;;17.96;91.07;98195.42;1755215;80;20964;-84
2022/06/04 09:41:59;;;;;;;16.12;14.43;;;;;;;18.00;91.04;98185.41;1772313;80;21036;-89
2022/06/04 09:44:27;;;;;;;17.80;15.80;;;;;;;18.02;91.28;98185.89;1776119;80;21091;-84
2022/06/04 09:47:07;;;;;;;21.90;15.83;;;;;;;18.03;91.83;98192.98;1772575;80;21068;-85
2022/06/04 09:49:42;;;;;;;18.95;14.55;;;;;;;18.08;91.64;98196.94;1779269;80;20989;-84
2022/06/04 09:52:29;;;;;;;16.12;14.53;;;;;;;18.11;91.55;98196.84;1779130;80;21114;-84
2022/06/04 09:54:57;;;;;;;18.25;15.40;;;;;;;18.06;92.99;98188.80;1778406;80;21366;-85
2022/06/04 09:57:35;;;;;;;20.57;14.58;;;;;;;17.97;94.64;98190.19;1774806;80;21029;-89
2022/06/04 10:00:02;;;;;;;17.75;14.83;;;;;;;17.95;94.00;98188.34;1763833;80;21004;-84
2022/06/04 10:02:28;;;;;;;16.65;14.53;;;;;;;18.07;92.67;98189.04;1737383;82;21051;-88
2022/06/04 10:05:06;;;;;;;17.37;14.83;;;;;;;18.15;92.34;98197.82;1772890;80;20821;-85
2022/06/04 10:07:36;;;;;;;15.93;14.30;;;;;;;18.12;93.08;98203.97;1779247;80;21535;-84
2022/06/04 10:10:23;;;;;;;17.90;15.35;;;;;;;18.04;93.43;98202.28;1763803;80;21135;-89
2022/06/04 10:15:46;;;;;;;23.95;20.77;;;;;;;17.87;94.70;98202.28;1764526;80;21513;-85
2022/06/04 10:18:31;;;;;;;17.92;16.02;;;;;;;17.89;93.37;98207.44;1744530;80;21013;-85
2022/06/04 10:21:17;;;;;;;17.17;15.32;;;;;;;17.91;92.96;98209.28;1750509;80;21085;-89
2022/06/04 10:23:47;;;;;;;21.07;16.30;;;;;;;17.94;92.68;98216.28;1758660;80;21113;-90
2022/06/04 10:26:49;;;;;;;22.70;15.68;;;;;;;17.93;92.49;98223.47;1758945;80;22073;-89
2022/06/04 10:29:39;;;;;;;13.75;12.33;;;;;;;17.90;93.65;98216.70;1772892;80;21452;-84
2022/06/04 10:32:27;;;;;;;13.88;12.00;;;;;;;17.78;94.77;98209.70;1778864;79;21040;-90
2022/06/04 10:35:05;;;;;;;12.75;11.48;;;;;;;17.69;95.26;98202.81;1779497;80;21005;-84
2022/06/04 10:38:03;;;;;;;12.68;11.38;;;;;;;17.64;95.69;98207.07;1779214;79;21116;-89
2022/06/04 10:41:16;;;;;;;14.23;11.78;;;;;;;17.88;94.94;98203.09;1762960;80;20944;-85
2022/06/04 10:44:36;;;;;;;11.83;10.68;;;;;;;18.44;93.18;98197.91;1779144;80;21029;-85
2022/06/04 10:47:11;;;;;;;12.03;10.70;;;;;;;19.13;91.81;98200.98;1778283;80;21025;-89
2022/06/04 10:49:57;;;;;;;11.60;10.23;;;;;;;19.92;88.89;98200.17;1775712;80;21067;-85
2022/06/04 10:52:40;;;;;;;11.03;8.80;;;;;;;20.18;88.54;98199.14;1778944;80;21061;-85
2022/06/04 10:55:24;;;;;;;9.95;8.53;;;;;;;20.33;87.66;98199.86;1779258;80;21501;-85
2022/06/04 10:58:11;;;;;;;10.40;8.30;;;;;;;20.61;87.41;98197.92;1779260;80;21513;-89
2022/06/04 11:00:44;;;;;;;9.90;7.87;;;;;;;20.55;86.06;98199.50;1770674;80;21472;-84
2022/06/04 11:03:30;;;;;;;8.10;7.22;;;;;;;20.51;85.36;98194.46;1779072;80;21012;-85
2022/06/04 11:06:13;;;;;;;13.58;7.03;;;;;;;20.62;84.98;98199.52;1778279;80;21456;-85
2022/06/04 11:08:44;;;;;;;8.55;6.45;;;;;;;20.51;83.89;98204.09;1768680;79;21005;-84
2022/06/04 11:11:18;;;;;;;12.05;7.00;;;;;;;20.19;81.94;98200.75;1771507;80;21032;-85
2022/06/04 11:13:55;;;;;;;8.03;7.05;;;;;;;20.18;83.70;98201.31;1777875;80;21010;-89
2022/06/04 11:16:39;;;;;;;9.00;7.20;;;;;;;19.90;82.08;98199.69;1762861;80;20984;-85
2022/06/04 11:19:18;;;;;;;6.42;5.83;;;;;;;20.17;81.33;98195.59;1779152;80;21383;-89
2022/06/04 11:21:55;;;;;;;6.47;5.87;;;;;;;20.58;81.76;98188.38;1779165;80;21074;-89
2022/06/04 11:24:41;;;;;;;7.30;6.15;;;;;;;20.27;80.94;98190.23;1770562;80;20971;-85
2022/06/04 11:27:21;;;;;;;7.15;6.45;;;;;;;20.51;79.80;98195.03;1778813;79;21067;-89
2022/06/04 11:29:50;;;;;;;8.28;6.15;;;;;;;20.08;80.55;98200.91;1779364;80;21021;-84
2022/06/04 11:32:38;;;;;;;7.80;6.25;;;;;;;20.13;80.86;98196.02;1762035;80;21881;-89
2022/06/04 11:35:19;;;;;;;10.70;6.20;;;;;;;20.25;80.59;98193.87;1779553;80;21405;-85
2022/06/04 11:38:03;;;;;;;8.55;6.35;;;;;;;20.09;81.47;98195.09;1779276;79;21027;-89
2022/06/04 11:40:35;;;;;;;7.72;6.33;;;;;;;20.15;81.34;98193.72;1765517;80;21048;-84
2022/06/04 11:43:21;;;;;;;8.88;6.10;;;;;;;20.31;80.49;98193.09;1737342;82;21550;-89
2022/06/04 11:46:13;;;;;;;7.47;5.67;;;;;;;20.35;80.95;98192.66;1733912;80;21869;-89
2022/06/04 11:49:09;;;;;;;8.15;5.20;;;;;;;20.75;78.53;98189.55;1758482;81;20998;-85
2022/06/04 11:52:07;;;;;;;7.42;6.37;;;;;;;20.84;78.50;98189.45;1764361;80;21072;-84
2022/06/04 11:54:54;;;;;;;8.63;5.75;;;;;;;20.99;78.57;98191.52;1761616;81;21008;-85
2022/06/04 11:57:43;;;;;;;8.48;5.97;;;;;;;20.80;78.11;98186.59;1758931;81;21052;-85
2022/06/04 12:00:24;;;;;;;6.60;6.00;;;;;;;20.63;77.88;98191.49;1774941;80;21121;-88